createdAt,value
2017-08-26T00:00:25.377Z,1014.91
2017-08-26T00:02:18.618Z,1014.87
2017-08-26T00:03:19.062Z,1014.87
2017-08-26T00:05:12.302Z,1014.89
2017-08-26T00:06:12.734Z,1014.85
2017-08-26T00:07:13.177Z,1014.89
2017-08-26T00:09:06.405Z,1014.85
2017-08-26T00:10:06.844Z,1014.83
2017-08-26T00:11:07.275Z,1014.79
2017-08-26T00:12:07.713Z,1014.81
2017-08-26T00:13:08.142Z,1014.78
2017-08-26T00:14:08.593Z,1014.75
2017-08-26T00:16:01.801Z,1014.75
2017-08-26T00:17:02.246Z,1014.72
2017-08-26T00:18:02.681Z,1014.77
2017-08-26T00:19:03.121Z,1014.76
2017-08-26T00:20:56.344Z,1014.76
2017-08-26T00:21:56.796Z,1014.75
2017-08-26T00:22:57.224Z,1014.76
2017-08-26T00:24:50.487Z,1014.75
2017-08-26T00:25:50.925Z,1014.75
2017-08-26T00:27:45.123Z,1014.75
2017-08-26T00:29:38.365Z,1014.73
2017-08-26T00:30:38.790Z,1014.76
2017-08-26T00:31:39.227Z,1014.71
2017-08-26T00:33:32.453Z,1014.74
2017-08-26T00:34:34.699Z,1014.70
2017-08-26T00:36:26.109Z,1014.76
2017-08-26T00:37:26.559Z,1014.77
2017-08-26T00:38:27.012Z,1014.76
2017-08-26T00:40:20.213Z,1014.75
2017-08-26T00:41:20.658Z,1014.76
2017-08-26T00:42:21.094Z,1014.75
2017-08-26T00:44:14.312Z,1014.71
2017-08-26T00:45:14.752Z,1014.77
2017-08-26T00:46:15.186Z,1014.74
2017-08-26T00:47:15.623Z,1014.74
2017-08-26T00:49:08.831Z,1014.77
2017-08-26T00:50:09.278Z,1014.82
2017-08-26T00:51:09.721Z,1014.78
2017-08-26T00:52:10.147Z,1014.79
2017-08-26T00:53:10.583Z,1014.81
2017-08-26T00:54:11.020Z,1014.83
2017-08-26T00:56:04.246Z,1014.83
2017-08-26T00:57:04.680Z,1014.85
2017-08-26T00:58:05.114Z,1014.87
2017-08-26T00:59:05.547Z,1014.85
2017-08-26T01:00:58.802Z,1014.85
2017-08-26T01:01:59.225Z,1014.87
2017-08-26T01:02:59.643Z,1014.93
2017-08-26T01:04:00.102Z,1014.91
2017-08-26T01:05:53.285Z,1014.89
2017-08-26T01:06:53.726Z,1014.83
2017-08-26T01:07:54.159Z,1014.84
2017-08-26T01:08:54.598Z,1014.85
2017-08-26T01:09:55.030Z,1014.85
2017-08-26T01:10:55.463Z,1014.86
2017-08-26T01:11:55.903Z,1014.84
2017-08-26T01:13:49.121Z,1014.88
2017-08-26T01:14:49.561Z,1014.90
2017-08-26T01:15:49.997Z,1014.87
2017-08-26T01:17:43.209Z,1014.89
2017-08-26T01:18:43.668Z,1014.94
2017-08-26T01:19:44.091Z,1014.92
2017-08-26T01:21:37.348Z,1014.87
2017-08-26T01:22:37.752Z,1014.87
2017-08-26T01:23:38.182Z,1014.88
2017-08-26T01:24:38.615Z,1014.87
2017-08-26T01:25:39.055Z,1014.86
2017-08-26T01:27:32.275Z,1014.82
2017-08-26T01:28:32.740Z,1014.84
2017-08-26T01:29:33.151Z,1014.81
2017-08-26T01:31:26.379Z,1014.84
2017-08-26T01:32:26.814Z,1014.88
2017-08-26T01:33:27.245Z,1014.86
2017-08-26T01:34:27.685Z,1014.84
2017-08-26T01:36:20.904Z,1014.88
2017-08-26T01:38:14.117Z,1014.84
2017-08-26T01:39:14.557Z,1014.86
2017-08-26T01:40:14.997Z,1014.88
2017-08-26T01:42:08.207Z,1014.87
2017-08-26T01:43:08.659Z,1014.87
2017-08-26T01:44:09.088Z,1014.85
2017-08-26T01:45:09.523Z,1014.86
2017-08-26T01:47:02.730Z,1014.83
2017-08-26T01:48:03.170Z,1014.85
2017-08-26T01:49:03.606Z,1014.83
2017-08-26T01:50:04.055Z,1014.87
2017-08-26T01:51:57.265Z,1014.84
2017-08-26T01:52:57.714Z,1014.83
2017-08-26T01:53:58.140Z,1014.87
2017-08-26T01:54:58.578Z,1014.85
2017-08-26T01:56:51.787Z,1014.90
2017-08-26T01:58:45.010Z,1014.87
2017-08-26T01:59:45.464Z,1014.89
2017-08-26T02:02:19.963Z,1014.91
2017-08-26T02:03:20.417Z,1014.93
2017-08-26T02:04:20.845Z,1014.92
2017-08-26T02:05:21.278Z,1014.94
2017-08-26T02:06:21.713Z,1014.90
2017-08-26T02:07:22.153Z,1014.88
2017-08-26T02:08:22.579Z,1014.89
2017-08-26T02:10:15.801Z,1014.89
2017-08-26T02:11:16.242Z,1014.90
2017-08-26T02:12:16.679Z,1014.92
2017-08-26T02:13:17.110Z,1014.93
2017-08-26T02:15:10.329Z,1014.89
2017-08-26T02:16:10.785Z,1014.89
2017-08-26T02:17:11.207Z,1014.89
2017-08-26T02:18:11.636Z,1014.85
2017-08-26T02:20:05.835Z,1014.85
2017-08-26T02:21:06.278Z,1014.87
2017-08-26T02:22:06.715Z,1014.87
2017-08-26T02:23:07.144Z,1014.87
2017-08-26T02:25:00.363Z,1014.89
2017-08-26T02:26:00.804Z,1014.88
2017-08-26T02:27:01.238Z,1014.88
2017-08-26T02:28:01.669Z,1014.87
2017-08-26T02:29:54.888Z,1014.90
2017-08-26T02:30:55.323Z,1014.89
2017-08-26T02:31:55.753Z,1014.91
2017-08-26T02:32:56.192Z,1014.92
2017-08-26T02:33:56.616Z,1014.92
2017-08-26T02:34:57.060Z,1014.87
2017-08-26T02:35:57.482Z,1014.88
2017-08-26T02:36:57.924Z,1014.85
2017-08-26T02:38:51.138Z,1014.90
2017-08-26T02:39:51.578Z,1014.90
2017-08-26T02:40:52.016Z,1014.91
2017-08-26T02:42:45.225Z,1014.91
2017-08-26T02:43:45.669Z,1014.93
2017-08-26T02:44:46.107Z,1014.89
2017-08-26T02:45:46.536Z,1014.93
2017-08-26T02:47:39.748Z,1014.88
2017-08-26T02:48:40.189Z,1014.90
2017-08-26T02:49:40.623Z,1014.89
2017-08-26T02:50:41.061Z,1014.90
2017-08-26T02:51:41.518Z,1014.93
2017-08-26T02:53:34.726Z,1014.94
2017-08-26T02:54:35.150Z,1014.94
2017-08-26T02:55:35.594Z,1014.92
2017-08-26T02:56:36.016Z,1014.90
2017-08-26T02:57:36.454Z,1014.89
2017-08-26T02:58:36.892Z,1014.90
2017-08-26T03:00:30.095Z,1014.84
2017-08-26T03:01:30.544Z,1014.82
2017-08-26T03:02:30.972Z,1014.79
2017-08-26T03:03:31.421Z,1014.77
2017-08-26T03:04:31.838Z,1014.76
2017-08-26T03:05:32.274Z,1014.76
2017-08-26T03:06:32.701Z,1014.72
2017-08-26T03:07:33.140Z,1014.69
2017-08-26T03:09:27.341Z,1014.69
2017-08-26T03:10:27.779Z,1014.70
2017-08-26T03:11:28.214Z,1014.69
2017-08-26T03:12:28.676Z,1014.71
2017-08-26T03:14:21.854Z,1014.69
2017-08-26T03:16:15.076Z,1014.74
2017-08-26T03:17:15.520Z,1014.69
2017-08-26T03:18:15.950Z,1014.72
2017-08-26T03:19:16.389Z,1014.68
2017-08-26T03:20:16.816Z,1014.68
2017-08-26T03:21:17.250Z,1014.68
2017-08-26T03:22:17.702Z,1014.70
2017-08-26T03:24:10.958Z,1014.67
2017-08-26T03:25:11.394Z,1014.68
2017-08-26T03:26:11.821Z,1014.68
2017-08-26T03:27:12.256Z,1014.65
2017-08-26T03:28:12.687Z,1014.65
2017-08-26T03:29:13.124Z,1014.66
2017-08-26T03:31:06.343Z,1014.67
2017-08-26T03:32:06.784Z,1014.69
2017-08-26T03:33:07.220Z,1014.68
2017-08-26T03:34:07.655Z,1014.66
2017-08-26T03:35:08.085Z,1014.66
2017-08-26T03:37:01.289Z,1014.68
2017-08-26T03:38:54.517Z,1014.75
2017-08-26T03:39:54.956Z,1014.74
2017-08-26T03:40:55.388Z,1014.76
2017-08-26T03:42:48.602Z,1014.73
2017-08-26T03:43:49.041Z,1014.76
2017-08-26T03:44:49.477Z,1014.76
2017-08-26T03:45:49.914Z,1014.79
2017-08-26T03:47:43.126Z,1014.82
2017-08-26T03:48:43.573Z,1014.80
2017-08-26T03:49:44.008Z,1014.80
2017-08-26T03:51:37.210Z,1014.77
2017-08-26T03:52:37.657Z,1014.78
2017-08-26T03:53:38.091Z,1014.79
2017-08-26T03:54:38.520Z,1014.80
2017-08-26T03:55:38.950Z,1014.80
2017-08-26T03:57:32.159Z,1014.77
2017-08-26T03:58:32.602Z,1014.80
2017-08-26T03:59:33.040Z,1014.77
2017-08-26T04:00:33.470Z,1014.78
2017-08-26T04:01:33.898Z,1014.80
2017-08-26T04:02:34.336Z,1014.77
2017-08-26T04:04:27.551Z,1014.80
2017-08-26T04:05:27.986Z,1014.81
2017-08-26T04:06:28.418Z,1014.83
2017-08-26T04:07:28.874Z,1014.85
2017-08-26T04:09:22.066Z,1014.89
2017-08-26T04:10:22.508Z,1014.90
2017-08-26T04:11:22.941Z,1014.87
2017-08-26T04:13:16.151Z,1014.88
2017-08-26T04:14:16.600Z,1014.86
2017-08-26T04:15:17.024Z,1014.87
2017-08-26T04:16:17.460Z,1014.81
2017-08-26T04:17:17.895Z,1014.82
2017-08-26T04:19:11.103Z,1014.84
2017-08-26T04:20:11.543Z,1014.86
2017-08-26T04:21:11.981Z,1014.88
2017-08-26T04:22:12.413Z,1014.90
2017-08-26T04:23:12.844Z,1014.89
2017-08-26T04:24:13.273Z,1014.90
2017-08-26T04:25:13.707Z,1014.87
2017-08-26T04:26:14.157Z,1014.84
2017-08-26T04:28:07.362Z,1014.85
2017-08-26T04:29:07.800Z,1014.85
2017-08-26T04:30:08.234Z,1014.84
2017-08-26T04:32:02.432Z,1014.83
2017-08-26T04:33:02.875Z,1014.83
2017-08-26T04:34:03.306Z,1014.83
2017-08-26T04:35:03.744Z,1014.77
2017-08-26T04:36:56.956Z,1014.73
2017-08-26T04:37:57.397Z,1014.71
2017-08-26T04:38:57.859Z,1014.65
2017-08-26T04:39:58.268Z,1014.61
2017-08-26T04:41:52.478Z,1014.63
2017-08-26T04:42:52.916Z,1014.62
2017-08-26T04:43:53.346Z,1014.65
2017-08-26T04:45:46.578Z,1014.60
2017-08-26T04:46:47.014Z,1014.57
2017-08-26T04:47:47.468Z,1014.58
2017-08-26T04:49:40.660Z,1014.59
2017-08-26T04:50:41.098Z,1014.51
2017-08-26T04:51:41.549Z,1014.57
2017-08-26T04:52:41.974Z,1014.53
2017-08-26T04:54:35.193Z,1014.57
2017-08-26T04:55:35.636Z,1014.58
2017-08-26T04:57:28.854Z,1014.65
2017-08-26T04:58:29.287Z,1014.67
2017-08-26T04:59:29.730Z,1014.68
2017-08-26T05:00:30.162Z,1014.68
2017-08-26T05:02:23.379Z,1014.67
2017-08-26T05:03:23.819Z,1014.66
2017-08-26T05:04:24.291Z,1014.60
2017-08-26T05:06:17.468Z,1014.63
2017-08-26T05:07:17.907Z,1014.61
2017-08-26T05:08:18.340Z,1014.52
2017-08-26T05:09:18.780Z,1014.54
2017-08-26T05:10:19.214Z,1014.57
2017-08-26T05:12:12.447Z,1014.55
2017-08-26T05:13:12.888Z,1014.53
2017-08-26T05:14:13.364Z,1014.56
2017-08-26T05:15:13.753Z,1014.55
2017-08-26T05:17:07.366Z,1014.58
2017-08-26T05:18:07.775Z,1014.53
2017-08-26T05:19:08.212Z,1014.56
2017-08-26T05:21:02.925Z,1014.58
2017-08-26T05:22:03.367Z,1014.59
2017-08-26T05:23:03.808Z,1014.58
2017-08-26T05:24:04.262Z,1014.57
2017-08-26T05:25:04.673Z,1014.60
2017-08-26T05:26:05.126Z,1014.65
2017-08-26T05:27:58.355Z,1014.64
2017-08-26T05:28:58.799Z,1014.65
2017-08-26T05:29:59.226Z,1014.64
2017-08-26T05:30:59.663Z,1014.65
2017-08-26T05:32:00.100Z,1014.66
2017-08-26T05:33:00.534Z,1014.67
2017-08-26T05:34:00.971Z,1014.66
2017-08-26T05:35:54.203Z,1014.70
2017-08-26T05:36:54.653Z,1014.71
2017-08-26T05:38:47.882Z,1014.66
2017-08-26T05:39:48.330Z,1014.66
2017-08-26T05:40:48.752Z,1014.63
2017-08-26T05:42:41.974Z,1014.63
2017-08-26T05:43:42.421Z,1014.65
2017-08-26T05:44:42.864Z,1014.64
2017-08-26T05:46:36.084Z,1014.69
2017-08-26T05:47:36.518Z,1014.64
2017-08-26T05:49:58.555Z,1014.75
2017-08-26T05:51:30.610Z,1014.75
2017-08-26T05:52:31.058Z,1014.74
2017-08-26T05:53:31.496Z,1014.72
2017-08-26T05:54:31.936Z,1014.72
2017-08-26T05:55:32.373Z,1014.68
2017-08-26T05:56:32.807Z,1014.66
2017-08-26T05:58:26.040Z,1014.68
2017-08-26T05:59:26.481Z,1014.67
2017-08-26T06:00:26.919Z,1014.66
2017-08-26T06:01:27.358Z,1014.68
2017-08-26T06:03:21.569Z,1014.62
2017-08-26T06:04:22.013Z,1014.61
2017-08-26T06:05:22.479Z,1014.60
2017-08-26T06:06:22.893Z,1014.58
2017-08-26T06:08:17.104Z,1014.59
2017-08-26T06:09:17.556Z,1014.59
2017-08-26T06:10:17.987Z,1014.57
2017-08-26T06:11:18.423Z,1014.56
2017-08-26T06:12:18.869Z,1014.56
2017-08-26T06:14:12.136Z,1014.55
2017-08-26T06:15:12.545Z,1014.61
2017-08-26T06:16:13.008Z,1014.54
2017-08-26T06:18:06.199Z,1014.57
2017-08-26T06:19:06.648Z,1014.55
2017-08-26T06:20:07.088Z,1014.54
2017-08-26T06:21:07.552Z,1014.53
2017-08-26T06:23:00.765Z,1014.56
2017-08-26T06:24:01.219Z,1014.54
2017-08-26T06:25:55.420Z,1014.52
2017-08-26T06:26:55.871Z,1014.55
2017-08-26T06:27:56.321Z,1014.55
2017-08-26T06:28:56.749Z,1014.59
2017-08-26T06:30:50.961Z,1014.56
2017-08-26T06:31:51.408Z,1014.59
2017-08-26T06:32:51.847Z,1014.56
2017-08-26T06:33:52.289Z,1014.58
2017-08-26T06:35:45.520Z,1014.57
2017-08-26T06:36:45.974Z,1014.57
2017-08-26T06:38:40.185Z,1014.57
2017-08-26T06:39:40.631Z,1014.51
2017-08-26T06:40:41.073Z,1014.46
2017-08-26T06:41:41.516Z,1014.39
2017-08-26T06:43:35.730Z,1014.31
2017-08-26T06:45:30.033Z,1014.23
2017-08-26T06:46:30.397Z,1014.19
2017-08-26T06:47:30.831Z,1014.16
2017-08-26T06:49:24.078Z,1014.16
2017-08-26T06:50:24.511Z,1014.19
2017-08-26T06:51:24.965Z,1014.18
2017-08-26T06:53:18.188Z,1014.24
2017-08-26T06:54:18.640Z,1014.32
2017-08-26T06:56:11.916Z,1014.35
2017-08-26T06:57:12.313Z,1014.28
2017-08-26T06:58:12.754Z,1014.26
2017-08-26T06:59:13.198Z,1014.25
2017-08-26T07:01:07.415Z,1014.24
2017-08-26T07:02:07.866Z,1014.27
2017-08-26T07:03:08.303Z,1014.23
2017-08-26T07:05:02.518Z,1014.25
2017-08-26T07:06:02.975Z,1014.27
2017-08-26T07:07:03.406Z,1014.27
2017-08-26T07:08:56.654Z,1014.30
2017-08-26T07:09:57.104Z,1014.33
2017-08-26T07:10:57.547Z,1014.32
2017-08-26T07:11:57.983Z,1014.32
2017-08-26T07:12:58.425Z,1014.29
2017-08-26T07:13:58.872Z,1014.35
2017-08-26T07:14:59.318Z,1014.31
2017-08-26T07:16:52.606Z,1014.36
2017-08-26T07:18:45.834Z,1014.38
2017-08-26T07:19:46.285Z,1014.38
2017-08-26T07:20:46.732Z,1014.40
2017-08-26T07:21:47.181Z,1014.38
2017-08-26T07:23:40.404Z,1014.36
2017-08-26T07:24:40.852Z,1014.31
2017-08-26T07:25:41.292Z,1014.37
2017-08-26T07:26:41.735Z,1014.33
2017-08-26T07:28:35.952Z,1014.31
2017-08-26T07:29:36.417Z,1014.29
2017-08-26T07:30:36.876Z,1014.36
2017-08-26T07:32:30.090Z,1014.32
2017-08-26T07:33:30.543Z,1014.31
2017-08-26T07:35:23.808Z,1014.35
2017-08-26T07:36:24.232Z,1014.37
2017-08-26T07:38:18.493Z,1014.37
2017-08-26T07:39:18.917Z,1014.37
2017-08-26T07:40:19.354Z,1014.39
2017-08-26T07:42:13.560Z,1014.35
2017-08-26T07:43:14.024Z,1014.40
2017-08-26T07:45:08.248Z,1014.40
2017-08-26T07:47:01.492Z,1014.39
2017-08-26T07:48:01.947Z,1014.40
2017-08-26T07:49:02.377Z,1014.36
2017-08-26T07:50:56.595Z,1014.33
2017-08-26T07:51:57.049Z,1014.31
2017-08-26T07:52:57.490Z,1014.29
2017-08-26T07:53:57.939Z,1014.30
2017-08-26T07:54:58.388Z,1014.22
2017-08-26T07:56:52.610Z,1014.19
2017-08-26T07:57:53.059Z,1014.18
2017-08-26T07:58:53.512Z,1014.22
2017-08-26T07:59:53.955Z,1014.20
2017-08-26T08:00:54.401Z,1014.25
2017-08-26T08:01:54.844Z,1014.26
2017-08-26T08:02:55.299Z,1014.28
2017-08-26T08:04:48.542Z,1014.30
2017-08-26T08:05:48.993Z,1014.29
2017-08-26T08:06:49.444Z,1014.34
2017-08-26T08:08:42.677Z,1014.37
2017-08-26T08:09:43.132Z,1014.41
2017-08-26T08:10:43.587Z,1014.51
2017-08-26T08:11:44.027Z,1014.50
2017-08-26T08:12:44.474Z,1014.46
2017-08-26T08:13:44.922Z,1014.50
2017-08-26T08:14:45.367Z,1014.47
2017-08-26T08:16:38.612Z,1014.45
2017-08-26T08:17:39.070Z,1014.44
2017-08-26T08:19:32.303Z,1014.43
2017-08-26T08:20:32.755Z,1014.42
2017-08-26T08:21:33.202Z,1014.46
2017-08-26T08:22:33.645Z,1014.51
2017-08-26T08:24:26.882Z,1014.53
2017-08-26T08:25:27.335Z,1014.58
2017-08-26T08:26:27.794Z,1014.56
2017-08-26T08:27:28.225Z,1014.59
2017-08-26T08:29:21.456Z,1014.58
2017-08-26T08:30:21.915Z,1014.59
2017-08-26T08:31:22.355Z,1014.62
2017-08-26T08:32:22.798Z,1014.61
2017-08-26T08:33:23.240Z,1014.63
2017-08-26T08:34:23.686Z,1014.61
2017-08-26T08:36:16.917Z,1014.60
2017-08-26T08:37:17.381Z,1014.55
2017-08-26T08:38:17.815Z,1014.58
2017-08-26T08:39:18.254Z,1014.57
2017-08-26T08:41:11.480Z,1014.51
2017-08-26T08:43:04.713Z,1014.51
2017-08-26T08:44:05.162Z,1014.51
2017-08-26T08:45:05.612Z,1014.49
2017-08-26T08:46:06.049Z,1014.45
2017-08-26T08:47:59.276Z,1014.40
2017-08-26T08:49:52.511Z,1014.38
2017-08-26T08:50:52.962Z,1014.30
2017-08-26T08:51:53.408Z,1014.27
2017-08-26T08:52:53.854Z,1014.25
2017-08-26T08:54:47.108Z,1014.29
2017-08-26T08:55:47.537Z,1014.27
2017-08-26T08:56:47.980Z,1014.24
2017-08-26T08:57:48.421Z,1014.24
2017-08-26T08:58:48.882Z,1014.20
2017-08-26T08:59:49.308Z,1014.26
2017-08-26T09:00:49.753Z,1014.22
2017-08-26T09:01:50.195Z,1014.25
2017-08-26T09:02:50.643Z,1014.24
2017-08-26T09:03:51.090Z,1014.23
2017-08-26T09:04:51.534Z,1014.27
2017-08-26T09:05:51.995Z,1014.27
2017-08-26T09:07:45.209Z,1014.25
2017-08-26T09:08:45.666Z,1014.22
2017-08-26T09:09:46.108Z,1014.25
2017-08-26T09:10:46.552Z,1014.22
2017-08-26T09:11:46.996Z,1014.22
2017-08-26T09:13:40.241Z,1014.22
2017-08-26T09:14:40.687Z,1014.22
2017-08-26T09:15:41.139Z,1014.18
2017-08-26T09:17:34.374Z,1014.14
2017-08-26T09:18:34.828Z,1014.18
2017-08-26T09:19:35.272Z,1014.17
2017-08-26T09:20:35.718Z,1014.19
2017-08-26T09:22:28.952Z,1014.17
2017-08-26T09:23:29.406Z,1014.22
2017-08-26T09:24:29.870Z,1014.16
2017-08-26T09:25:30.319Z,1014.13
2017-08-26T09:27:23.562Z,1014.16
2017-08-26T09:29:16.804Z,1014.16
2017-08-26T09:30:17.256Z,1014.15
2017-08-26T09:31:17.701Z,1014.14
2017-08-26T09:32:18.145Z,1014.16
2017-08-26T09:33:18.595Z,1014.14
2017-08-26T09:34:19.038Z,1014.11
2017-08-26T09:35:19.484Z,1014.11
2017-08-26T09:36:19.935Z,1014.09
2017-08-26T09:38:13.205Z,1014.11
2017-08-26T09:39:13.656Z,1014.07
2017-08-26T09:40:14.100Z,1014.08
2017-08-26T09:41:14.558Z,1014.10
2017-08-26T09:43:07.793Z,1014.09
2017-08-26T09:44:08.254Z,1014.10
2017-08-26T09:45:08.698Z,1014.13
2017-08-26T09:47:01.944Z,1014.11
2017-08-26T09:48:02.407Z,1014.12
2017-08-26T09:49:02.852Z,1014.14
2017-08-26T09:50:03.298Z,1014.11
2017-08-26T09:51:56.542Z,1014.05
2017-08-26T09:52:56.994Z,1014.05
2017-08-26T09:53:57.445Z,1014.07
2017-08-26T09:54:57.894Z,1014.06
2017-08-26T09:55:58.343Z,1014.04
2017-08-26T09:56:58.799Z,1014.03
2017-08-26T09:58:52.028Z,1014.02
2017-08-26T10:00:45.266Z,1014.06
2017-08-26T10:01:45.728Z,1014.02
2017-08-26T10:02:46.177Z,1014.03
2017-08-26T10:03:46.624Z,1014.07
2017-08-26T10:04:47.070Z,1014.04
2017-08-26T10:05:47.515Z,1014.02
2017-08-26T10:06:47.962Z,1014.02
2017-08-26T10:07:48.408Z,1014.00
2017-08-26T10:08:48.861Z,1013.97
2017-08-26T10:10:42.103Z,1013.97
2017-08-26T10:11:42.554Z,1014.00
2017-08-26T10:12:43.001Z,1013.95
2017-08-26T10:13:43.449Z,1013.92
2017-08-26T10:14:43.899Z,1013.91
2017-08-26T10:16:38.130Z,1013.92
2017-08-26T10:17:38.578Z,1013.89
2017-08-26T10:18:39.033Z,1013.94
2017-08-26T10:19:39.474Z,1013.91
2017-08-26T10:21:32.706Z,1013.92
2017-08-26T10:23:25.959Z,1013.88
2017-08-26T10:24:26.403Z,1013.86
2017-08-26T10:25:26.849Z,1013.85
2017-08-26T10:26:27.302Z,1013.84
2017-08-26T10:28:20.535Z,1013.81
2017-08-26T10:29:20.993Z,1013.79
2017-08-26T10:30:21.439Z,1013.80
2017-08-26T10:31:21.882Z,1013.79
2017-08-26T10:32:22.332Z,1013.76
2017-08-26T10:34:15.576Z,1013.75
2017-08-26T10:35:16.025Z,1013.79
2017-08-26T10:36:16.472Z,1013.78
2017-08-26T10:37:16.924Z,1013.73
2017-08-26T10:38:17.373Z,1013.75
2017-08-26T10:40:11.594Z,1013.78
2017-08-26T10:42:05.832Z,1013.71
2017-08-26T10:43:06.288Z,1013.76
2017-08-26T10:44:06.750Z,1013.70
2017-08-26T10:45:59.983Z,1013.66
2017-08-26T10:47:00.445Z,1013.64
2017-08-26T10:48:00.884Z,1013.67
2017-08-26T10:49:01.339Z,1013.63
2017-08-26T10:50:54.583Z,1013.65
2017-08-26T10:51:55.043Z,1013.64
2017-08-26T10:52:55.491Z,1013.62
2017-08-26T10:54:48.730Z,1013.60
2017-08-26T10:56:41.993Z,1013.58
2017-08-26T10:57:42.463Z,1013.55
2017-08-26T10:58:42.904Z,1013.57
2017-08-26T11:00:37.124Z,1013.52
2017-08-26T11:02:30.387Z,1013.55
2017-08-26T11:03:30.833Z,1013.50
2017-08-26T11:04:31.281Z,1013.55
2017-08-26T11:05:31.732Z,1013.49
2017-08-26T11:06:32.176Z,1013.47
2017-08-26T11:07:32.634Z,1013.50
2017-08-26T11:08:33.085Z,1013.47
2017-08-26T11:10:26.316Z,1013.50
2017-08-26T11:11:26.791Z,1013.45
2017-08-26T11:12:27.233Z,1013.47
2017-08-26T11:13:27.690Z,1013.44
2017-08-26T11:14:28.127Z,1013.43
2017-08-26T11:16:21.372Z,1013.35
2017-08-26T11:17:21.836Z,1013.31
2017-08-26T11:18:22.281Z,1013.25
2017-08-26T11:19:22.732Z,1013.23
2017-08-26T11:21:15.981Z,1013.20
2017-08-26T11:22:16.447Z,1013.28
2017-08-26T11:23:16.899Z,1013.26
2017-08-26T11:25:10.131Z,1013.25
2017-08-26T11:26:10.599Z,1013.24
2017-08-26T11:27:11.045Z,1013.20
2017-08-26T11:28:11.511Z,1013.23
2017-08-26T11:30:04.762Z,1013.23
2017-08-26T11:31:05.222Z,1013.25
2017-08-26T11:32:05.669Z,1013.22
2017-08-26T11:33:58.953Z,1013.24
2017-08-26T11:34:59.412Z,1013.20
2017-08-26T11:36:52.663Z,1013.24
2017-08-26T11:37:53.141Z,1013.20
2017-08-26T11:38:53.596Z,1013.22
2017-08-26T11:40:47.622Z,1013.17
2017-08-26T11:41:47.862Z,1013.15
2017-08-26T11:42:48.332Z,1013.09
2017-08-26T11:43:48.795Z,1013.09
2017-08-26T11:44:49.232Z,1013.09
2017-08-26T11:45:49.688Z,1013.03
2017-08-26T11:46:50.138Z,1013.05
2017-08-26T11:47:50.590Z,1013.03
2017-08-26T11:48:51.046Z,1013.04
2017-08-26T11:50:44.292Z,1012.95
2017-08-26T11:51:44.959Z,1012.94
2017-08-26T11:52:45.190Z,1012.93
2017-08-26T11:53:45.653Z,1012.88
2017-08-26T11:54:46.105Z,1012.80
2017-08-26T11:56:39.370Z,1012.79
2017-08-26T11:57:39.827Z,1012.79
2017-08-26T11:59:33.090Z,1012.78
2017-08-26T12:00:33.548Z,1012.74
2017-08-26T12:02:27.792Z,1012.67
2017-08-26T12:04:22.017Z,1012.58
2017-08-26T12:05:22.480Z,1012.59
2017-08-26T12:06:22.938Z,1012.61
2017-08-26T12:08:16.195Z,1012.65
2017-08-26T12:09:16.646Z,1012.63
2017-08-26T12:10:17.095Z,1012.65
2017-08-26T12:12:10.336Z,1012.67
2017-08-26T12:13:10.792Z,1012.67
2017-08-26T12:14:11.278Z,1012.63
2017-08-26T12:15:11.693Z,1012.68
2017-08-26T12:16:12.145Z,1012.69
2017-08-26T12:18:06.370Z,1012.72
2017-08-26T12:20:00.617Z,1012.67
2017-08-26T12:21:01.078Z,1012.66
2017-08-26T12:22:01.534Z,1012.62
2017-08-26T12:23:55.763Z,1012.60
2017-08-26T12:24:56.217Z,1012.65
2017-08-26T12:25:56.668Z,1012.61
2017-08-26T12:26:57.124Z,1012.65
2017-08-26T12:28:50.354Z,1012.62
2017-08-26T12:29:50.813Z,1012.61
2017-08-26T12:30:51.259Z,1012.62
2017-08-26T12:31:51.718Z,1012.64
2017-08-26T12:32:52.166Z,1012.69
2017-08-26T12:34:45.427Z,1012.68
2017-08-26T12:36:38.653Z,1012.67
2017-08-26T12:37:39.110Z,1012.61
2017-08-26T12:38:39.577Z,1012.61
2017-08-26T12:39:40.035Z,1012.61
2017-08-26T12:41:33.252Z,1012.57
2017-08-26T12:42:33.725Z,1012.60
2017-08-26T12:43:34.158Z,1012.62
2017-08-26T12:45:27.395Z,1012.62
2017-08-26T12:47:20.639Z,1012.59
2017-08-26T12:49:13.882Z,1012.59
2017-08-26T12:50:14.343Z,1012.59
2017-08-26T12:51:14.789Z,1012.60
2017-08-26T12:52:15.236Z,1012.56
2017-08-26T12:53:15.685Z,1012.54
2017-08-26T12:54:16.137Z,1012.55
2017-08-26T12:55:16.588Z,1012.53
2017-08-26T12:56:17.037Z,1012.50
2017-08-26T12:57:17.501Z,1012.47
2017-08-26T12:58:17.924Z,1012.45
2017-08-26T12:59:18.372Z,1012.45
2017-08-26T13:00:18.827Z,1012.42
2017-08-26T13:01:19.272Z,1012.45
2017-08-26T13:03:12.517Z,1012.44
2017-08-26T13:04:12.974Z,1012.44
2017-08-26T13:05:13.434Z,1012.42
2017-08-26T13:07:07.652Z,1012.40
2017-08-26T13:08:08.110Z,1012.40
2017-08-26T13:09:08.553Z,1012.39
2017-08-26T13:10:09.002Z,1012.35
2017-08-26T13:12:02.247Z,1012.35
2017-08-26T13:13:02.701Z,1012.29
2017-08-26T13:14:03.156Z,1012.29
2017-08-26T13:15:56.410Z,1012.30
2017-08-26T13:16:56.857Z,1012.30
2017-08-26T13:17:57.295Z,1012.29
2017-08-26T13:18:57.743Z,1012.36
2017-08-26T13:19:58.195Z,1012.32
2017-08-26T13:20:58.641Z,1012.35
2017-08-26T13:21:59.095Z,1012.33
2017-08-26T13:22:59.541Z,1012.28
2017-08-26T13:24:52.777Z,1012.32
2017-08-26T13:25:53.235Z,1012.32
2017-08-26T13:26:53.691Z,1012.27
2017-08-26T13:28:46.921Z,1012.31
2017-08-26T13:29:47.376Z,1012.31
2017-08-26T13:30:47.822Z,1012.29
2017-08-26T13:31:48.272Z,1012.28
2017-08-26T13:32:48.718Z,1012.26
2017-08-26T13:33:49.164Z,1012.29
2017-08-26T13:34:49.617Z,1012.26
2017-08-26T13:36:42.876Z,1012.29
2017-08-26T13:37:43.319Z,1012.27
2017-08-26T13:38:43.820Z,1012.30
2017-08-26T13:39:44.209Z,1012.30
2017-08-26T13:40:44.655Z,1012.31
2017-08-26T13:42:38.893Z,1012.27
2017-08-26T13:44:32.117Z,1012.19
2017-08-26T13:45:32.582Z,1012.17
2017-08-26T13:48:06.155Z,1012.25
2017-08-26T13:50:00.370Z,1012.24
2017-08-26T13:51:00.828Z,1012.19
2017-08-26T13:52:01.281Z,1012.26
2017-08-26T13:53:01.722Z,1012.22
2017-08-26T13:54:02.169Z,1012.21
2017-08-26T13:55:02.622Z,1012.25
2017-08-26T13:56:55.864Z,1012.19
2017-08-26T13:57:56.354Z,1012.19
2017-08-26T13:58:56.758Z,1012.18
2017-08-26T13:59:57.209Z,1012.23
2017-08-26T14:00:57.656Z,1012.17
2017-08-26T14:02:51.884Z,1012.13
2017-08-26T14:03:52.336Z,1012.11
2017-08-26T14:04:52.787Z,1012.11
2017-08-26T14:05:53.238Z,1012.11
2017-08-26T14:06:53.680Z,1012.10
2017-08-26T14:07:54.128Z,1012.08
2017-08-26T14:08:54.589Z,1012.09
2017-08-26T14:10:47.806Z,1012.09
2017-08-26T14:11:48.263Z,1012.07
2017-08-26T14:12:48.724Z,1012.06
2017-08-26T14:13:49.161Z,1012.03
2017-08-26T14:14:49.613Z,1012.05
2017-08-26T14:15:50.054Z,1012.03
2017-08-26T14:16:50.510Z,1012.04
2017-08-26T14:18:43.748Z,1012.05
2017-08-26T14:19:44.206Z,1012.01
2017-08-26T14:20:44.655Z,1012.04
2017-08-26T14:21:45.102Z,1012.02
2017-08-26T14:22:45.552Z,1012.00
2017-08-26T14:24:38.785Z,1011.97
2017-08-26T14:25:39.241Z,1011.97
2017-08-26T14:26:39.694Z,1011.97
2017-08-26T14:27:40.137Z,1011.99
2017-08-26T14:28:40.599Z,1011.97
2017-08-26T14:30:34.806Z,1012.00
2017-08-26T14:31:35.259Z,1011.98
2017-08-26T14:32:35.708Z,1012.00
2017-08-26T14:33:36.153Z,1011.96
2017-08-26T14:34:36.604Z,1011.94
2017-08-26T14:35:37.060Z,1011.92
2017-08-26T14:36:37.500Z,1011.88
2017-08-26T14:37:37.950Z,1011.83
2017-08-26T14:39:31.189Z,1011.84
2017-08-26T14:40:31.657Z,1011.90
2017-08-26T14:41:32.104Z,1011.89
2017-08-26T14:43:25.345Z,1011.88
2017-08-26T14:44:25.822Z,1011.86
2017-08-26T14:45:26.251Z,1011.85
2017-08-26T14:47:19.502Z,1011.78
2017-08-26T14:48:19.964Z,1011.74
2017-08-26T14:49:20.403Z,1011.72
2017-08-26T14:50:20.854Z,1011.74
2017-08-26T14:52:14.087Z,1011.70
2017-08-26T14:53:14.539Z,1011.69
2017-08-26T14:54:14.989Z,1011.66
2017-08-26T14:55:15.442Z,1011.64
2017-08-26T14:56:15.886Z,1011.61
2017-08-26T14:57:16.329Z,1011.63
2017-08-26T14:58:16.772Z,1011.59